KADW

Joint Base Andrews Airport

Camp Springs, Maryland, USA
METAR KADW 160956Z AUTO 22007KT 10SM CLR M04/M06 A3009 RMK AO2 SLP200 T10401063 $
Observed Flight Rules
Dec-16 @ 09:56 UTC (an hour ago) Visual Flight Rules
Wind Visibility Clouds
220° at 7 knots 10 miles
  • Clear skies
Temperatures Readings
Current -4°C / 25°F
Dewpoint -6°C / 21°F
Humidity 86%
Altimeter 30.09" Hg
Pressure 1020 hPa
Elevation 86
METAR KADW 160956Z AUTO 22007KT 10SM CLR M04/M06 A3009 RMK AO2 SLP200 T10401063 $
Observed Flight Rules
Dec-16 @ 09:56 UTC
(an hour ago)
VFR
Wind Visibility
220° at 7 knots 10 miles
Clouds
  • Clear skies
Temperature Dewpoint
-4°C / 25°F -6°C / 21°F
Humidity Altimeter Pressure
86% 30.09" Hg 1020 hPa